sensor_id;sensor_type;location;lat;lon;timestamp;temperature;humidity
15290;DHT22;7746;50.554;7.108;2023-03-05T09:13:50;4.14;86.14
15290;DHT22;7746;50.554;7.108;2023-03-05T09:16:18;3.98;85.15
15290;DHT22;7746;50.554;7.108;2023-03-05T09:18:46;4.03;86.45
15290;DHT22;7746;50.554;7.108;2023-03-05T09:21:15;4.20;87.08
15290;DHT22;7746;50.554;7.108;2023-03-05T09:23:43;4.34;86.10
15290;DHT22;7746;50.554;7.108;2023-03-05T09:26:13;4.34;84.78
15290;DHT22;7746;50.554;7.108;2023-03-05T09:28:45;4.30;86.16
15290;DHT22;7746;50.554;7.108;2023-03-05T09:31:14;4.42;84.37
15290;DHT22;7746;50.554;7.108;2023-03-05T09:33:41;4.56;85.28
15290;DHT22;7746;50.554;7.108;2023-03-05T09:36:17;4.47;83.67
15290;DHT22;7746;50.554;7.108;2023-03-05T09:38:45;4.72;84.13
15290;DHT22;7746;50.554;7.108;2023-03-05T09:41:17;4.84;83.39
15290;DHT22;7746;50.554;7.108;2023-03-05T09:43:54;4.77;82.69
15290;DHT22;7746;50.554;7.108;2023-03-05T09:46:31;4.78;83.12
15290;DHT22;7746;50.554;7.108;2023-03-05T09:49:11;4.99;82.66
15290;DHT22;7746;50.554;7.108;2023-03-05T09:51:41;4.92;82.29
15290;DHT22;7746;50.554;7.108;2023-03-05T09:54:14;5.02;82.46
15290;DHT22;7746;50.554;7.108;2023-03-05T09:56:46;5.09;81.72
15290;DHT22;7746;50.554;7.108;2023-03-05T09:59:22;5.18;81.34
15290;DHT22;7746;50.554;7.108;2023-03-05T10:01:56;5.15;82.02
15290;DHT22;7746;50.554;7.108;2023-03-05T10:04:40;5.48;80.91
15290;DHT22;7746;50.554;7.108;2023-03-05T10:07:13;5.66;81.20
15290;DHT22;7746;50.554;7.108;2023-03-05T10:09:44;5.63;79.22
15290;DHT22;7746;50.554;7.108;2023-03-05T10:12:19;5.60;80.74
15290;DHT22;7746;50.554;7.108;2023-03-05T10:14:48;5.75;80.55
15290;DHT22;7746;50.554;7.108;2023-03-05T10:17:35;5.48;80.03
15290;DHT22;7746;50.554;7.108;2023-03-05T10:20:24;5.46;77.09
15290;DHT22;7746;50.554;7.108;2023-03-05T10:23:03;5.40;76.23
15290;DHT22;7746;50.554;7.108;2023-03-05T10:25:51;5.75;77.77
15290;DHT22;7746;50.554;7.108;2023-03-05T10:28:23;5.85;78.99
15290;DHT22;7746;50.554;7.108;2023-03-05T10:31:06;5.63;75.95
15290;DHT22;7746;50.554;7.108;2023-03-05T10:33:42;6.18;76.37
15290;DHT22;7746;50.554;7.108;2023-03-05T10:36:33;6.25;72.30
15290;DHT22;7746;50.554;7.108;2023-03-05T10:39:25;6.18;72.22
15290;DHT22;7746;50.554;7.108;2023-03-05T10:42:04;6.12;74.66
15290;DHT22;7746;50.554;7.108;2023-03-05T10:44:36;6.13;73.32
15290;DHT22;7746;50.554;7.108;2023-03-05T10:47:14;6.05;72.93
15290;DHT22;7746;50.554;7.108;2023-03-05T10:49:49;5.82;73.33
15290;DHT22;7746;50.554;7.108;2023-03-05T10:52:19;5.87;74.20
15290;DHT22;7746;50.554;7.108;2023-03-05T10:54:49;6.23;74.64
15290;DHT22;7746;50.554;7.108;2023-03-05T10:57:18;6.32;72.36
15290;DHT22;7746;50.554;7.108;2023-03-05T10:59:51;6.41;72.29
15290;DHT22;7746;50.554;7.108;2023-03-05T11:02:21;6.25;74.48
15290;DHT22;7746;50.554;7.108;2023-03-05T11:04:50;6.39;73.78
15290;DHT22;7746;50.554;7.108;2023-03-05T11:07:36;6.46;73.87
15290;DHT22;7746;50.554;7.108;2023-03-05T11:10:15;6.06;74.71
15290;DHT22;7746;50.554;7.108;2023-03-05T11:12:43;5.99;74.16
15290;DHT22;7746;50.554;7.108;2023-03-05T11:15:25;5.78;74.18
15290;DHT22;7746;50.554;7.108;2023-03-05T11:18:16;5.73;74.44
15290;DHT22;7746;50.554;7.108;2023-03-05T11:20:44;5.81;74.45
15290;DHT22;7746;50.554;7.108;2023-03-05T11:23:14;5.70;75.11
15290;DHT22;7746;50.554;7.108;2023-03-05T11:26:00;5.71;75.22
15290;DHT22;7746;50.554;7.108;2023-03-05T11:28:35;5.48;74.98
15290;DHT22;7746;50.554;7.108;2023-03-05T11:31:06;5.56;74.93
15290;DHT22;7746;50.554;7.108;2023-03-05T11:33:36;5.64;74.58
15290;DHT22;7746;50.554;7.108;2023-03-05T11:36:23;5.61;75.27
15290;DHT22;7746;50.554;7.108;2023-03-05T11:38:54;5.47;75.19
15290;DHT22;7746;50.554;7.108;2023-03-05T11:41:28;5.51;75.53
15290;DHT22;7746;50.554;7.108;2023-03-05T11:43:56;5.57;75.43
15290;DHT22;7746;50.554;7.108;2023-03-05T11:46:25;5.36;74.82
15290;DHT22;7746;50.554;7.108;2023-03-05T11:48:53;5.34;75.01
15290;DHT22;7746;50.554;7.108;2023-03-05T11:51:27;5.31;74.97
15290;DHT22;7746;50.554;7.108;2023-03-05T11:54:00;5.41;75.32
15290;DHT22;7746;50.554;7.108;2023-03-05T11:56:35;5.43;75.06
15290;DHT22;7746;50.554;7.108;2023-03-05T11:59:06;5.50;75.21
15290;DHT22;7746;50.554;7.108;2023-03-05T12:01:43;5.70;74.22
15290;DHT22;7746;50.554;7.108;2023-03-05T12:04:11;5.68;74.22
15290;DHT22;7746;50.554;7.108;2023-03-05T12:06:43;5.63;74.09
15290;DHT22;7746;50.554;7.108;2023-03-05T12:09:14;5.82;73.86
15290;DHT22;7746;50.554;7.108;2023-03-05T12:11:45;5.67;73.84
15290;DHT22;7746;50.554;7.108;2023-03-05T12:14:18;5.50;74.62
15290;DHT22;7746;50.554;7.108;2023-03-05T12:16:52;5.73;74.38
15290;DHT22;7746;50.554;7.108;2023-03-05T12:19:39;5.63;74.09
15290;DHT22;7746;50.554;7.108;2023-03-05T12:22:18;5.46;74.25
15290;DHT22;7746;50.554;7.108;2023-03-05T12:24:45;5.50;74.74
15290;DHT22;7746;50.554;7.108;2023-03-05T12:27:15;5.48;75.00
15290;DHT22;7746;50.554;7.108;2023-03-05T12:29:45;5.36;74.84
15290;DHT22;7746;50.554;7.108;2023-03-05T12:35:27;5.58;75.84
15290;DHT22;7746;50.554;7.108;2023-03-05T12:38:03;5.67;76.65
15290;DHT22;7746;50.554;7.108;2023-03-05T12:40:33;5.64;76.51
15290;DHT22;7746;50.554;7.108;2023-03-05T12:43:02;5.87;76.74
15290;DHT22;7746;50.554;7.108;2023-03-05T12:48:43;5.87;76.64
15290;DHT22;7746;50.554;7.108;2023-03-05T12:51:13;5.97;75.77
15290;DHT22;7746;50.554;7.108;2023-03-05T12:53:41;6.05;75.48
15290;DHT22;7746;50.554;7.108;2023-03-05T12:56:17;6.03;75.35
15290;DHT22;7746;50.554;7.108;2023-03-05T12:58:48;5.98;75.17
15290;DHT22;7746;50.554;7.108;2023-03-05T13:01:35;5.68;75.92
15290;DHT22;7746;50.554;7.108;2023-03-05T13:04:05;5.46;76.39
15290;DHT22;7746;50.554;7.108;2023-03-05T13:06:37;5.40;76.70
15290;DHT22;7746;50.554;7.108;2023-03-05T13:09:17;5.56;77.03
15290;DHT22;7746;50.554;7.108;2023-03-05T13:11:47;5.44;77.54
15290;DHT22;7746;50.554;7.108;2023-03-05T13:14:32;5.66;77.48
15290;DHT22;7746;50.554;7.108;2023-03-05T13:17:01;6.09;77.51
15290;DHT22;7746;50.554;7.108;2023-03-05T13:19:31;5.95;76.96
15290;DHT22;7746;50.554;7.108;2023-03-05T13:22:03;5.89;77.36
15290;DHT22;7746;50.554;7.108;2023-03-05T13:24:32;5.95;77.05
15290;DHT22;7746;50.554;7.108;2023-03-05T13:26:59;6.01;75.89
15290;DHT22;7746;50.554;7.108;2023-03-05T13:29:26;5.92;76.66
15290;DHT22;7746;50.554;7.108;2023-03-05T13:31:57;5.68;76.93
15290;DHT22;7746;50.554;7.108;2023-03-05T13:34:27;5.73;76.57
15290;DHT22;7746;50.554;7.108;2023-03-05T13:36:58;5.52;76.55
15290;DHT22;7746;50.554;7.108;2023-03-05T13:39:28;5.48;77.19
15290;DHT22;7746;50.554;7.108;2023-03-05T13:42:02;5.56;77.31
15290;DHT22;7746;50.554;7.108;2023-03-05T13:44:32;5.48;77.38
15290;DHT22;7746;50.554;7.108;2023-03-05T13:47:07;5.47;76.93
15290;DHT22;7746;50.554;7.108;2023-03-05T13:49:35;5.60;77.18
15290;DHT22;7746;50.554;7.108;2023-03-05T13:52:02;5.75;76.66
15290;DHT22;7746;50.554;7.108;2023-03-05T13:54:31;5.75;76.63
15290;DHT22;7746;50.554;7.108;2023-03-05T13:57:00;5.63;76.76
15290;DHT22;7746;50.554;7.108;2023-03-05T13:59:30;5.63;77.01
15290;DHT22;7746;50.554;7.108;2023-03-05T14:01:59;5.63;77.59
15290;DHT22;7746;50.554;7.108;2023-03-05T14:04:29;5.78;76.39
15290;DHT22;7746;50.554;7.108;2023-03-05T14:06:59;5.71;76.27
15290;DHT22;7746;50.554;7.108;2023-03-05T14:09:30;5.70;76.42
15290;DHT22;7746;50.554;7.108;2023-03-05T14:12:04;5.68;76.38
15290;DHT22;7746;50.554;7.108;2023-03-05T14:14:36;5.66;76.02
15290;DHT22;7746;50.554;7.108;2023-03-05T14:17:32;5.70;76.46
15290;DHT22;7746;50.554;7.108;2023-03-05T14:20:18;5.67;76.01
15290;DHT22;7746;50.554;7.108;2023-03-05T14:22:49;5.74;76.49
15290;DHT22;7746;50.554;7.108;2023-03-05T14:25:31;5.66;76.00
15290;DHT22;7746;50.554;7.108;2023-03-05T14:28:06;5.61;75.60
15290;DHT22;7746;50.554;7.108;2023-03-05T14:30:33;5.56;75.67
15290;DHT22;7746;50.554;7.108;2023-03-05T14:33:02;5.54;75.75
15290;DHT22;7746;50.554;7.108;2023-03-05T14:35:30;5.79;75.35
15290;DHT22;7746;50.554;7.108;2023-03-05T14:37:58;5.73;75.48
15290;DHT22;7746;50.554;7.108;2023-03-05T14:40:30;5.85;75.14
15290;DHT22;7746;50.554;7.108;2023-03-05T14:42:59;5.58;75.49
15290;DHT22;7746;50.554;7.108;2023-03-05T14:45:29;5.74;76.30
15290;DHT22;7746;50.554;7.108;2023-03-05T14:47:58;5.68;75.34
15290;DHT22;7746;50.554;7.108;2023-03-05T14:50:27;5.75;75.76
15290;DHT22;7746;50.554;7.108;2023-03-05T14:52:56;5.77;75.63
15290;DHT22;7746;50.554;7.108;2023-03-05T14:55:26;5.73;75.69
15290;DHT22;7746;50.554;7.108;2023-03-05T14:58:00;5.56;76.29
15290;DHT22;7746;50.554;7.108;2023-03-05T15:00:31;5.52;76.91
15290;DHT22;7746;50.554;7.108;2023-03-05T15:02:58;5.60;76.79
15290;DHT22;7746;50.554;7.108;2023-03-05T15:05:25;5.52;76.46
15290;DHT22;7746;50.554;7.108;2023-03-05T15:07:52;5.48;76.71
15290;DHT22;7746;50.554;7.108;2023-03-05T15:10:23;5.48;76.87
15290;DHT22;7746;50.554;7.108;2023-03-05T15:12:50;5.57;76.21
15290;DHT22;7746;50.554;7.108;2023-03-05T15:15:19;5.58;76.44
15290;DHT22;7746;50.554;7.108;2023-03-05T15:17:49;5.47;76.85
15290;DHT22;7746;50.554;7.108;2023-03-05T15:20:21;5.56;77.26
15290;DHT22;7746;50.554;7.108;2023-03-05T15:22:48;5.58;76.08
15290;DHT22;7746;50.554;7.108;2023-03-05T15:25:17;5.48;76.92
15290;DHT22;7746;50.554;7.108;2023-03-05T15:27:45;5.43;77.20
15290;DHT22;7746;50.554;7.108;2023-03-05T15:30:19;5.33;77.44
15290;DHT22;7746;50.554;7.108;2023-03-05T15:32:49;5.37;77.75
15290;DHT22;7746;50.554;7.108;2023-03-05T15:35:16;5.31;77.66
15290;DHT22;7746;50.554;7.108;2023-03-05T15:37:44;5.24;77.06
15290;DHT22;7746;50.554;7.108;2023-03-05T15:40:12;5.24;76.93
15290;DHT22;7746;50.554;7.108;2023-03-05T15:42:39;5.29;77.10
15290;DHT22;7746;50.554;7.108;2023-03-05T15:45:07;5.31;75.28
15290;DHT22;7746;50.554;7.108;2023-03-05T15:47:35;5.27;75.63
15290;DHT22;7746;50.554;7.108;2023-03-05T15:50:06;5.19;75.46
15290;DHT22;7746;50.554;7.108;2023-03-05T15:52:33;5.23;76.02
15290;DHT22;7746;50.554;7.108;2023-03-05T15:55:00;5.20;75.47
15290;DHT22;7746;50.554;7.108;2023-03-05T15:57:28;5.18;75.46
15290;DHT22;7746;50.554;7.108;2023-03-05T15:59:55;5.13;75.58
15290;DHT22;7746;50.554;7.108;2023-03-05T16:02:23;5.08;76.70
15290;DHT22;7746;50.554;7.108;2023-03-05T16:04:50;5.18;75.66
15290;DHT22;7746;50.554;7.108;2023-03-05T16:07:19;5.16;75.99
15290;DHT22;7746;50.554;7.108;2023-03-05T16:09:48;5.16;75.67
15290;DHT22;7746;50.554;7.108;2023-03-05T16:12:18;5.10;76.16
15290;DHT22;7746;50.554;7.108;2023-03-05T16:14:47;5.03;76.17
15290;DHT22;7746;50.554;7.108;2023-03-05T16:17:15;5.02;76.65
15290;DHT22;7746;50.554;7.108;2023-03-05T16:19:45;5.02;76.27
15290;DHT22;7746;50.554;7.108;2023-03-05T16:22:14;5.06;76.72
15290;DHT22;7746;50.554;7.108;2023-03-05T16:24:42;4.96;76.66
15290;DHT22;7746;50.554;7.108;2023-03-05T16:27:10;4.98;76.98
15290;DHT22;7746;50.554;7.108;2023-03-05T16:29:37;4.89;77.23
15290;DHT22;7746;50.554;7.108;2023-03-05T16:32:05;4.84;77.84
15290;DHT22;7746;50.554;7.108;2023-03-05T16:34:32;4.92;77.96
15290;DHT22;7746;50.554;7.108;2023-03-05T16:37:00;4.88;78.27
15290;DHT22;7746;50.554;7.108;2023-03-05T16:39:29;4.88;78.65
15290;DHT22;7746;50.554;7.108;2023-03-05T16:41:58;4.89;78.65
15290;DHT22;7746;50.554;7.108;2023-03-05T16:44:25;4.82;78.59
15290;DHT22;7746;50.554;7.108;2023-03-05T16:46:55;4.84;78.64
15290;DHT22;7746;50.554;7.108;2023-03-05T16:49:22;4.79;79.04
15290;DHT22;7746;50.554;7.108;2023-03-05T16:51:49;4.84;79.06
15290;DHT22;7746;50.554;7.108;2023-03-05T16:54:16;4.82;79.19
15290;DHT22;7746;50.554;7.108;2023-03-05T16:56:44;4.79;79.06
15290;DHT22;7746;50.554;7.108;2023-03-05T16:59:15;4.68;79.47
15290;DHT22;7746;50.554;7.108;2023-03-05T17:01:42;4.71;79.75
15290;DHT22;7746;50.554;7.108;2023-03-05T17:04:09;4.68;79.55
15290;DHT22;7746;50.554;7.108;2023-03-05T17:06:37;4.65;79.56
15290;DHT22;7746;50.554;7.108;2023-03-05T17:09:04;4.65;79.68
15290;DHT22;7746;50.554;7.108;2023-03-05T17:11:31;4.75;79.74
15290;DHT22;7746;50.554;7.108;2023-03-05T17:13:59;4.71;79.95
15290;DHT22;7746;50.554;7.108;2023-03-05T17:16:27;4.67;79.99
15290;DHT22;7746;50.554;7.108;2023-03-05T17:18:54;4.69;79.85
15290;DHT22;7746;50.554;7.108;2023-03-05T17:21:21;4.71;79.88
15290;DHT22;7746;50.554;7.108;2023-03-05T17:23:49;4.64;80.76
15290;DHT22;7746;50.554;7.108;2023-03-05T17:26:17;4.72;80.54
15290;DHT22;7746;50.554;7.108;2023-03-05T17:28:45;4.67;80.78
15290;DHT22;7746;50.554;7.108;2023-03-05T17:31:13;4.65;81.18
15290;DHT22;7746;50.554;7.108;2023-03-05T17:33:42;4.64;81.07
15290;DHT22;7746;50.554;7.108;2023-03-05T17:36:13;4.64;81.22
15290;DHT22;7746;50.554;7.108;2023-03-05T17:38:41;4.60;81.01
15290;DHT22;7746;50.554;7.108;2023-03-05T17:41:08;4.68;80.43
15290;DHT22;7746;50.554;7.108;2023-03-05T17:43:36;4.58;80.94
15290;DHT22;7746;50.554;7.108;2023-03-05T17:46:03;4.56;81.10
15290;DHT22;7746;50.554;7.108;2023-03-05T17:48:30;4.56;81.08
15290;DHT22;7746;50.554;7.108;2023-03-05T17:51:00;4.64;81.25
15290;DHT22;7746;50.554;7.108;2023-03-05T17:53:27;4.68;81.12
15290;DHT22;7746;50.554;7.108;2023-03-05T17:55:54;4.58;81.23
15290;DHT22;7746;50.554;7.108;2023-03-05T17:58:22;4.50;81.82
15290;DHT22;7746;50.554;7.108;2023-03-05T18:00:49;4.28;82.99
15290;DHT22;7746;50.554;7.108;2023-03-05T18:03:16;4.24;82.96
15290;DHT22;7746;50.554;7.108;2023-03-05T18:05:44;4.19;83.01
15290;DHT22;7746;50.554;7.108;2023-03-05T18:08:12;4.19;83.34
15290;DHT22;7746;50.554;7.108;2023-03-05T18:10:39;4.26;83.28
15290;DHT22;7746;50.554;7.108;2023-03-05T18:13:06;4.21;83.24
15290;DHT22;7746;50.554;7.108;2023-03-05T18:15:34;4.14;83.44
15290;DHT22;7746;50.554;7.108;2023-03-05T18:18:02;4.16;83.62
15290;DHT22;7746;50.554;7.108;2023-03-05T18:20:32;4.21;83.49
15290;DHT22;7746;50.554;7.108;2023-03-05T18:23:01;4.24;83.34
15290;DHT22;7746;50.554;7.108;2023-03-05T18:25:31;4.28;83.18
15290;DHT22;7746;50.554;7.108;2023-03-05T18:27:59;4.31;83.22
15290;DHT22;7746;50.554;7.108;2023-03-05T18:30:27;4.27;83.58
15290;DHT22;7746;50.554;7.108;2023-03-05T18:32:55;4.42;83.42
15290;DHT22;7746;50.554;7.108;2023-03-05T18:35:22;4.38;83.63
15290;DHT22;7746;50.554;7.108;2023-03-05T18:37:49;4.44;83.24
15290;DHT22;7746;50.554;7.108;2023-03-05T18:40:18;4.28;83.46
15290;DHT22;7746;50.554;7.108;2023-03-05T18:42:48;4.03;84.44
15290;DHT22;7746;50.554;7.108;2023-03-05T18:45:16;4.02;84.73
15290;DHT22;7746;50.554;7.108;2023-03-05T18:47:43;4.05;85.00
15290;DHT22;7746;50.554;7.108;2023-03-05T18:50:13;4.11;84.78
15290;DHT22;7746;50.554;7.108;2023-03-05T18:52:40;4.06;85.23
15290;DHT22;7746;50.554;7.108;2023-03-05T18:55:10;4.00;85.32
15290;DHT22;7746;50.554;7.108;2023-03-05T18:57:38;4.06;84.44
15290;DHT22;7746;50.554;7.108;2023-03-05T19:00:09;4.16;84.23
15290;DHT22;7746;50.554;7.108;2023-03-05T19:02:36;4.16;83.45
15290;DHT22;7746;50.554;7.108;2023-03-05T19:05:04;4.13;83.74
15290;DHT22;7746;50.554;7.108;2023-03-05T19:07:31;4.17;84.10
15290;DHT22;7746;50.554;7.108;2023-03-05T19:10:00;4.13;84.78
15290;DHT22;7746;50.554;7.108;2023-03-05T19:12:33;4.10;84.90
15290;DHT22;7746;50.554;7.108;2023-03-05T19:15:06;4.10;85.24
15290;DHT22;7746;50.554;7.108;2023-03-05T19:17:33;4.02;85.71
15290;DHT22;7746;50.554;7.108;2023-03-05T19:20:00;4.09;85.93
15290;DHT22;7746;50.554;7.108;2023-03-05T19:22:31;3.99;86.33
15290;DHT22;7746;50.554;7.108;2023-03-05T19:24:59;3.96;87.96
15290;DHT22;7746;50.554;7.108;2023-03-05T19:27:26;3.99;87.77
15290;DHT22;7746;50.554;7.108;2023-03-05T19:29:53;3.95;88.18
15290;DHT22;7746;50.554;7.108;2023-03-05T19:32:22;4.03;88.40
15290;DHT22;7746;50.554;7.108;2023-03-05T19:34:52;3.92;89.64
15290;DHT22;7746;50.554;7.108;2023-03-05T19:37:20;3.74;90.56
15290;DHT22;7746;50.554;7.108;2023-03-05T19:39:47;3.64;91.01
15290;DHT22;7746;50.554;7.108;2023-03-05T19:42:14;3.61;92.00
15290;DHT22;7746;50.554;7.108;2023-03-05T19:44:41;3.57;92.29
15290;DHT22;7746;50.554;7.108;2023-03-05T19:47:09;3.47;92.80
15290;DHT22;7746;50.554;7.108;2023-03-05T19:49:37;3.44;93.47
15290;DHT22;7746;50.554;7.108;2023-03-05T19:52:05;3.47;93.64
15290;DHT22;7746;50.554;7.108;2023-03-05T19:54:32;3.44;93.74
15290;DHT22;7746;50.554;7.108;2023-03-05T19:57:00;3.41;93.99
15290;DHT22;7746;50.554;7.108;2023-03-05T19:59:27;3.44;93.95
15290;DHT22;7746;50.554;7.108;2023-03-05T20:01:54;3.36;94.13
15290;DHT22;7746;50.554;7.108;2023-03-05T20:04:23;3.34;94.50
15290;DHT22;7746;50.554;7.108;2023-03-05T20:06:52;3.23;95.19
15290;DHT22;7746;50.554;7.108;2023-03-05T20:09:19;3.28;95.42
15290;DHT22;7746;50.554;7.108;2023-03-05T20:11:46;3.40;95.25
15290;DHT22;7746;50.554;7.108;2023-03-05T20:14:14;3.52;95.17
15290;DHT22;7746;50.554;7.108;2023-03-05T20:16:41;3.55;95.33
15290;DHT22;7746;50.554;7.108;2023-03-05T20:19:13;3.57;95.08
15290;DHT22;7746;50.554;7.108;2023-03-05T20:21:41;3.58;95.09
15290;DHT22;7746;50.554;7.108;2023-03-05T20:24:16;3.37;95.44
15290;DHT22;7746;50.554;7.108;2023-03-05T20:26:45;3.44;95.82
15290;DHT22;7746;50.554;7.108;2023-03-05T20:29:14;3.40;96.02
15290;DHT22;7746;50.554;7.108;2023-03-05T20:31:43;3.13;95.53
15290;DHT22;7746;50.554;7.108;2023-03-05T20:34:12;2.96;96.01
15290;DHT22;7746;50.554;7.108;2023-03-05T20:36:44;2.92;96.29
15290;DHT22;7746;50.554;7.108;2023-03-05T20:39:12;2.89;96.34
15290;DHT22;7746;50.554;7.108;2023-03-05T20:41:41;2.82;96.82
15290;DHT22;7746;50.554;7.108;2023-03-05T20:44:08;2.71;97.51
15290;DHT22;7746;50.554;7.108;2023-03-05T20:46:42;2.76;97.30
15290;DHT22;7746;50.554;7.108;2023-03-05T20:49:27;2.72;97.43
15290;DHT22;7746;50.554;7.108;2023-03-05T20:51:54;2.79;97.37
15290;DHT22;7746;50.554;7.108;2023-03-05T20:54:23;2.86;97.33
15290;DHT22;7746;50.554;7.108;2023-03-05T20:56:52;2.83;97.43
15290;DHT22;7746;50.554;7.108;2023-03-05T20:59:19;2.80;97.52
15290;DHT22;7746;50.554;7.108;2023-03-05T21:01:48;2.86;97.57
15290;DHT22;7746;50.554;7.108;2023-03-05T21:04:15;2.95;97.48
15290;DHT22;7746;50.554;7.108;2023-03-05T21:06:42;2.99;97.47
15290;DHT22;7746;50.554;7.108;2023-03-05T21:09:09;3.06;97.18
15290;DHT22;7746;50.554;7.108;2023-03-05T21:11:38;3.07;97.18
15290;DHT22;7746;50.554;7.108;2023-03-05T21:14:05;3.10;97.03
15290;DHT22;7746;50.554;7.108;2023-03-05T21:16:32;3.11;96.89
15290;DHT22;7746;50.554;7.108;2023-03-05T21:18:59;3.06;96.58
15290;DHT22;7746;50.554;7.108;2023-03-05T21:21:27;3.08;96.71
15290;DHT22;7746;50.554;7.108;2023-03-05T21:23:55;3.11;96.53
15290;DHT22;7746;50.554;7.108;2023-03-05T21:26:22;3.13;96.28
15290;DHT22;7746;50.554;7.108;2023-03-05T21:28:51;3.04;95.97
15290;DHT22;7746;50.554;7.108;2023-03-05T21:31:20;3.04;96.10
15290;DHT22;7746;50.554;7.108;2023-03-05T21:33:47;3.11;96.27
15290;DHT22;7746;50.554;7.108;2023-03-05T21:36:15;3.11;96.42
15290;DHT22;7746;50.554;7.108;2023-03-05T21:38:44;3.07;96.12
15290;DHT22;7746;50.554;7.108;2023-03-05T21:41:11;3.08;95.60
15290;DHT22;7746;50.554;7.108;2023-03-05T21:43:38;3.11;95.70
15290;DHT22;7746;50.554;7.108;2023-03-05T21:46:08;3.14;95.46
15290;DHT22;7746;50.554;7.108;2023-03-05T21:48:36;3.20;95.45
15290;DHT22;7746;50.554;7.108;2023-03-05T21:51:31;3.23;95.11
15290;DHT22;7746;50.554;7.108;2023-03-05T21:54:12;3.17;95.33
15290;DHT22;7746;50.554;7.108;2023-03-05T21:56:39;3.17;95.66
15290;DHT22;7746;50.554;7.108;2023-03-05T21:59:06;3.16;95.44
15290;DHT22;7746;50.554;7.108;2023-03-05T22:01:35;3.08;95.25
15290;DHT22;7746;50.554;7.108;2023-03-05T22:04:02;3.14;95.28
15290;DHT22;7746;50.554;7.108;2023-03-05T22:06:29;3.14;94.90
15290;DHT22;7746;50.554;7.108;2023-03-05T22:08:57;3.10;95.18
15290;DHT22;7746;50.554;7.108;2023-03-05T22:11:24;3.17;95.30
15290;DHT22;7746;50.554;7.108;2023-03-05T22:13:51;3.20;95.20
15290;DHT22;7746;50.554;7.108;2023-03-05T22:16:22;3.18;94.99
15290;DHT22;7746;50.554;7.108;2023-03-05T22:18:51;3.21;95.15
15290;DHT22;7746;50.554;7.108;2023-03-05T22:21:20;3.24;94.96
15290;DHT22;7746;50.554;7.108;2023-03-05T22:23:48;3.23;94.85
15290;DHT22;7746;50.554;7.108;2023-03-05T22:26:15;3.21;94.74
15290;DHT22;7746;50.554;7.108;2023-03-05T22:28:42;3.21;94.82
15290;DHT22;7746;50.554;7.108;2023-03-05T22:31:10;3.28;94.50
15290;DHT22;7746;50.554;7.108;2023-03-05T22:33:37;3.17;93.88
15290;DHT22;7746;50.554;7.108;2023-03-05T22:36:10;3.14;93.73
15290;DHT22;7746;50.554;7.108;2023-03-05T22:38:38;3.13;93.88
15290;DHT22;7746;50.554;7.108;2023-03-05T22:41:07;3.16;93.53
15290;DHT22;7746;50.554;7.108;2023-03-05T22:43:35;3.13;93.75
15290;DHT22;7746;50.554;7.108;2023-03-05T22:46:08;3.24;93.73
15290;DHT22;7746;50.554;7.108;2023-03-05T22:48:36;3.26;93.34
15290;DHT22;7746;50.554;7.108;2023-03-05T22:51:03;3.21;93.57
15290;DHT22;7746;50.554;7.108;2023-03-05T22:53:32;3.14;93.45
15290;DHT22;7746;50.554;7.108;2023-03-05T22:56:03;3.26;93.37
15290;DHT22;7746;50.554;7.108;2023-03-05T22:58:30;3.27;93.09
15290;DHT22;7746;50.554;7.108;2023-03-05T23:00:57;3.20;93.14
15290;DHT22;7746;50.554;7.108;2023-03-05T23:03:25;3.17;93.01
15290;DHT22;7746;50.554;7.108;2023-03-05T23:05:52;3.17;92.85
15290;DHT22;7746;50.554;7.108;2023-03-05T23:08:19;3.26;93.02
15290;DHT22;7746;50.554;7.108;2023-03-05T23:10:48;3.26;93.12
15290;DHT22;7746;50.554;7.108;2023-03-05T23:13:15;3.23;93.50
15290;DHT22;7746;50.554;7.108;2023-03-05T23:15:42;3.13;93.42
15290;DHT22;7746;50.554;7.108;2023-03-05T23:18:09;3.20;93.33
15290;DHT22;7746;50.554;7.108;2023-03-05T23:20:39;3.24;93.55
15290;DHT22;7746;50.554;7.108;2023-03-05T23:23:06;3.26;93.15
15290;DHT22;7746;50.554;7.108;2023-03-05T23:25:34;3.28;93.31
15290;DHT22;7746;50.554;7.108;2023-03-05T23:28:03;3.34;93.26
15290;DHT22;7746;50.554;7.108;2023-03-05T23:30:31;3.24;92.77
15290;DHT22;7746;50.554;7.108;2023-03-05T23:33:02;3.14;93.05
15290;DHT22;7746;50.554;7.108;2023-03-05T23:35:31;3.20;93.40
15290;DHT22;7746;50.554;7.108;2023-03-05T23:38:00;3.26;93.23
15290;DHT22;7746;50.554;7.108;2023-03-05T23:40:29;3.17;93.16
15290;DHT22;7746;50.554;7.108;2023-03-05T23:42:57;3.30;93.03
15290;DHT22;7746;50.554;7.108;2023-03-05T23:45:26;3.32;92.90
15290;DHT22;7746;50.554;7.108;2023-03-05T23:47:54;3.28;92.86
15290;DHT22;7746;50.554;7.108;2023-03-05T23:50:23;3.23;92.88
15290;DHT22;7746;50.554;7.108;2023-03-05T23:52:51;3.18;93.04
15290;DHT22;7746;50.554;7.108;2023-03-05T23:55:21;3.18;93.15
15290;DHT22;7746;50.554;7.108;2023-03-05T23:57:49;3.26;93.24
